createdAt,value
2017-09-17T00:02:19.616Z,90.00
2017-09-17T00:04:47.257Z,89.60
2017-09-17T00:07:15.669Z,89.90
2017-09-17T00:09:43.312Z,89.90
2017-09-17T00:12:10.977Z,89.90
2017-09-17T00:14:38.604Z,89.90
2017-09-17T00:17:06.292Z,90.40
2017-09-17T00:19:34.709Z,90.70
2017-09-17T00:22:02.335Z,90.00
2017-09-17T00:24:29.973Z,90.20
2017-09-17T00:26:57.635Z,90.30
2017-09-17T00:29:25.259Z,90.40
2017-09-17T00:31:53.643Z,90.00
2017-09-17T00:34:21.996Z,89.90
2017-09-17T00:36:49.614Z,89.90
2017-09-17T00:39:18.000Z,90.40
2017-09-17T00:41:45.662Z,90.00
2017-09-17T00:44:13.285Z,90.10
2017-09-17T00:46:41.676Z,92.20
2017-09-17T00:49:09.327Z,92.20
2017-09-17T00:51:36.946Z,92.40
2017-09-17T00:54:04.566Z,92.40
2017-09-17T00:56:32.221Z,91.60
2017-09-17T00:59:00.604Z,90.50
2017-09-17T01:01:29.005Z,90.00
2017-09-17T01:03:56.664Z,90.00
2017-09-17T01:06:24.280Z,90.00
2017-09-17T01:08:51.906Z,89.80
2017-09-17T01:11:20.333Z,89.70
2017-09-17T01:13:47.952Z,89.70
2017-09-17T01:16:15.571Z,88.70
2017-09-17T01:18:43.216Z,88.40
2017-09-17T01:21:10.837Z,87.60
2017-09-17T01:23:39.234Z,86.80
2017-09-17T01:26:06.898Z,86.80
2017-09-17T01:28:34.512Z,87.10
2017-09-17T01:31:02.139Z,88.90
2017-09-17T01:33:30.566Z,90.40
2017-09-17T01:35:58.188Z,90.40
2017-09-17T01:38:25.808Z,91.70
2017-09-17T01:40:54.220Z,91.30
2017-09-17T01:43:21.848Z,91.30
2017-09-17T01:45:49.476Z,91.00
2017-09-17T01:48:17.135Z,91.40
2017-09-17T01:50:44.749Z,91.30
2017-09-17T01:53:13.150Z,90.40
2017-09-17T01:55:40.812Z,90.40
2017-09-17T01:58:08.435Z,90.80
2017-09-17T02:00:36.059Z,91.20
2017-09-17T02:03:04.483Z,89.80
2017-09-17T02:05:32.099Z,89.80
2017-09-17T02:07:59.720Z,89.70
2017-09-17T02:10:28.140Z,88.60
2017-09-17T02:12:55.756Z,88.50
2017-09-17T02:15:23.377Z,88.60
2017-09-17T02:17:51.801Z,89.10
2017-09-17T02:20:19.429Z,89.10
2017-09-17T02:22:47.045Z,89.30
2017-09-17T02:25:14.706Z,90.10
2017-09-17T02:27:42.324Z,90.00
2017-09-17T02:30:10.709Z,90.10
2017-09-17T02:32:38.355Z,90.00
2017-09-17T02:35:06.980Z,89.70
2017-09-17T02:37:34.599Z,90.00
2017-09-17T02:40:02.256Z,89.80
2017-09-17T02:42:29.882Z,90.00
2017-09-17T02:44:57.505Z,89.00
2017-09-17T02:47:25.165Z,88.60
2017-09-17T02:49:52.779Z,88.40
2017-09-17T02:52:21.173Z,88.90
2017-09-17T02:54:48.821Z,88.90
2017-09-17T02:57:16.464Z,89.20
2017-09-17T02:59:44.079Z,89.20
2017-09-17T03:02:12.495Z,90.30
2017-09-17T03:04:40.112Z,90.20
2017-09-17T03:07:07.730Z,89.50
2017-09-17T03:09:35.379Z,90.00
2017-09-17T03:12:03.000Z,89.80
2017-09-17T03:14:30.639Z,88.90
2017-09-17T03:16:58.330Z,88.90
2017-09-17T03:19:26.716Z,88.70
2017-09-17T03:21:54.335Z,88.70
2017-09-17T03:24:21.994Z,89.30
2017-09-17T03:26:49.648Z,89.20
2017-09-17T03:29:17.275Z,88.60
2017-09-17T03:31:45.688Z,88.80
2017-09-17T03:34:13.309Z,88.80
2017-09-17T03:36:40.951Z,89.40
2017-09-17T03:39:08.604Z,89.90
2017-09-17T03:41:36.223Z,90.10
2017-09-17T03:44:03.853Z,90.30
2017-09-17T03:46:31.515Z,89.70
2017-09-17T03:48:59.916Z,90.10
2017-09-17T03:51:27.539Z,90.10
2017-09-17T03:53:55.200Z,89.30
2017-09-17T03:56:22.832Z,88.80
2017-09-17T03:58:50.474Z,88.70
2017-09-17T04:01:18.128Z,89.00
2017-09-17T04:03:45.763Z,89.50
2017-09-17T04:06:13.446Z,89.90
2017-09-17T04:08:41.109Z,89.20
2017-09-17T04:11:08.736Z,88.70
2017-09-17T04:13:36.373Z,88.30
2017-09-17T04:16:04.040Z,88.70
2017-09-17T04:18:31.666Z,89.10
2017-09-17T04:20:59.293Z,89.40
2017-09-17T04:23:27.714Z,89.40
2017-09-17T04:25:55.343Z,89.40
2017-09-17T04:28:22.972Z,88.60
2017-09-17T04:30:50.631Z,89.20
2017-09-17T04:33:18.251Z,88.80
2017-09-17T04:35:45.881Z,89.60
2017-09-17T04:38:14.307Z,89.50
2017-09-17T04:40:41.931Z,89.40
2017-09-17T04:43:09.558Z,89.20
2017-09-17T04:45:37.261Z,89.40
2017-09-17T04:48:04.887Z,89.40
2017-09-17T04:50:32.511Z,89.50
2017-09-17T04:53:00.166Z,89.70
2017-09-17T04:55:27.793Z,89.00
2017-09-17T04:57:55.423Z,89.10
2017-09-17T05:00:23.853Z,88.60
2017-09-17T05:02:51.511Z,88.50
2017-09-17T05:05:19.142Z,88.30
2017-09-17T05:07:46.807Z,88.80
2017-09-17T05:10:14.436Z,88.70
2017-09-17T05:12:42.073Z,88.80
2017-09-17T05:15:09.729Z,89.20
2017-09-17T05:17:37.358Z,89.10
2017-09-17T05:20:05.012Z,89.40
2017-09-17T05:22:32.664Z,89.00
2017-09-17T05:25:00.298Z,88.80
2017-09-17T05:27:27.916Z,87.70
2017-09-17T05:29:55.571Z,88.70
2017-09-17T05:32:23.191Z,88.90
2017-09-17T05:34:51.590Z,88.20
2017-09-17T05:37:19.251Z,88.20
2017-09-17T05:39:46.915Z,89.00
2017-09-17T05:42:14.616Z,87.80
2017-09-17T05:44:42.280Z,88.20
2017-09-17T05:47:09.920Z,87.70
2017-09-17T05:49:37.552Z,88.20
2017-09-17T05:52:06.916Z,88.10
2017-09-17T05:54:35.322Z,87.70
2017-09-17T05:57:05.242Z,87.70
2017-09-17T05:59:33.425Z,87.90
2017-09-17T06:02:01.048Z,86.70
2017-09-17T06:04:28.673Z,86.80
2017-09-17T06:06:56.322Z,86.20
2017-09-17T06:09:23.952Z,86.00
2017-09-17T06:11:51.580Z,85.90
2017-09-17T06:14:19.249Z,85.80
2017-09-17T06:16:46.872Z,86.30
2017-09-17T06:19:15.260Z,85.60
2017-09-17T06:21:43.268Z,85.60
2017-09-17T06:24:11.196Z,85.70
2017-09-17T06:26:38.864Z,85.30
2017-09-17T06:29:06.568Z,85.80
2017-09-17T06:31:34.236Z,85.80
2017-09-17T06:34:01.868Z,86.10
2017-09-17T06:36:30.338Z,86.10
2017-09-17T06:38:59.403Z,86.40
2017-09-17T06:41:27.947Z,86.40
2017-09-17T06:43:56.374Z,85.50
2017-09-17T06:46:24.009Z,85.40
2017-09-17T06:48:51.636Z,84.80
2017-09-17T06:51:19.291Z,82.80
2017-09-17T06:53:46.929Z,81.60
2017-09-17T06:56:14.565Z,80.10
2017-09-17T06:58:42.232Z,78.30
2017-09-17T07:01:09.864Z,76.90
2017-09-17T07:03:37.568Z,76.30
2017-09-17T07:06:05.224Z,75.10
2017-09-17T07:08:33.620Z,75.30
2017-09-17T07:11:01.247Z,75.20
2017-09-17T07:13:29.686Z,73.90
2017-09-17T07:15:57.316Z,73.80
2017-09-17T07:18:24.956Z,75.80
2017-09-17T07:20:52.644Z,76.50
2017-09-17T07:23:21.044Z,74.00
2017-09-17T07:25:48.665Z,74.00
2017-09-17T07:28:17.092Z,73.30
2017-09-17T07:30:44.723Z,73.30
2017-09-17T07:33:12.347Z,72.70
2017-09-17T07:35:40.009Z,71.20
2017-09-17T07:38:07.637Z,70.50
2017-09-17T07:40:35.266Z,68.60
2017-09-17T07:43:02.934Z,69.20
2017-09-17T07:45:30.560Z,67.10
2017-09-17T07:47:58.201Z,67.50
2017-09-17T07:50:26.619Z,67.90
2017-09-17T07:52:54.235Z,67.90
2017-09-17T07:55:21.869Z,66.40
2017-09-17T07:57:49.536Z,61.10
2017-09-17T08:00:17.165Z,62.60
2017-09-17T08:02:44.799Z,62.00
2017-09-17T08:05:13.219Z,59.80
2017-09-17T08:07:40.844Z,59.70
2017-09-17T08:10:08.493Z,57.10
2017-09-17T08:12:36.155Z,52.20
2017-09-17T08:15:03.788Z,49.20
2017-09-17T08:17:31.425Z,50.10
2017-09-17T08:19:59.120Z,43.00
2017-09-17T08:22:26.722Z,35.40
2017-09-17T08:24:54.339Z,28.60
2017-09-17T08:27:21.973Z,29.10
2017-09-17T08:29:49.585Z,26.80
2017-09-17T08:32:17.204Z,28.10
2017-09-17T08:34:44.836Z,27.60
2017-09-17T08:37:12.450Z,25.90
2017-09-17T08:39:40.060Z,25.40
2017-09-17T08:42:07.696Z,25.70
2017-09-17T08:44:36.272Z,25.60
2017-09-17T08:47:03.881Z,24.00
2017-09-17T08:49:32.285Z,24.60
2017-09-17T08:51:59.881Z,24.50
2017-09-17T08:54:27.485Z,20.40
2017-09-17T08:56:55.124Z,21.00
2017-09-17T08:59:22.724Z,20.40
2017-09-17T09:01:50.329Z,19.00
2017-09-17T09:04:17.964Z,19.70
2017-09-17T09:06:45.585Z,20.90
2017-09-17T09:09:13.184Z,19.40
2017-09-17T09:11:40.809Z,19.70
2017-09-17T09:14:08.405Z,17.80
2017-09-17T09:16:36.771Z,15.90
2017-09-17T09:19:04.399Z,15.90
2017-09-17T09:21:32.001Z,15.00
2017-09-17T09:23:59.596Z,14.70
2017-09-17T09:26:27.223Z,16.40
2017-09-17T09:28:54.824Z,16.10
2017-09-17T09:31:22.425Z,15.70
2017-09-17T09:33:50.062Z,13.60
2017-09-17T09:36:17.661Z,14.20
2017-09-17T09:38:45.255Z,14.90
2017-09-17T09:41:12.906Z,16.80
2017-09-17T09:43:41.295Z,14.70
2017-09-17T09:46:09.662Z,16.60
2017-09-17T09:48:37.289Z,17.10
2017-09-17T09:51:04.876Z,16.80
2017-09-17T09:53:32.467Z,18.00
2017-09-17T09:56:00.096Z,17.70
2017-09-17T09:58:27.704Z,19.40
2017-09-17T10:00:55.299Z,18.70
2017-09-17T10:03:22.939Z,18.00
2017-09-17T10:05:50.531Z,17.30
2017-09-17T10:08:18.127Z,16.60
2017-09-17T10:10:45.755Z,17.20
2017-09-17T10:13:13.627Z,17.00
2017-09-17T10:15:41.223Z,15.80
2017-09-17T10:18:08.852Z,17.20
2017-09-17T10:20:37.212Z,18.40
2017-09-17T10:23:04.812Z,18.90
2017-09-17T10:25:32.447Z,17.70
2017-09-17T10:28:00.040Z,17.20
2017-09-17T10:30:27.644Z,16.80
2017-09-17T10:32:55.268Z,15.20
2017-09-17T10:35:22.859Z,15.70
2017-09-17T10:37:50.456Z,16.10
2017-09-17T10:40:18.079Z,15.30
2017-09-17T10:42:46.435Z,17.50
2017-09-17T10:45:14.038Z,17.50
2017-09-17T10:47:41.696Z,17.90
2017-09-17T10:50:09.307Z,19.50
2017-09-17T10:52:36.914Z,20.50
2017-09-17T10:55:04.556Z,22.10
2017-09-17T10:57:32.154Z,21.30
2017-09-17T10:59:59.766Z,23.60
2017-09-17T11:02:28.161Z,20.00
2017-09-17T11:04:58.041Z,22.30
2017-09-17T11:07:26.404Z,22.40
2017-09-17T11:09:54.031Z,22.30
2017-09-17T11:12:21.749Z,20.80
2017-09-17T11:14:49.351Z,19.80
2017-09-17T11:17:16.996Z,17.90
2017-09-17T11:19:44.600Z,19.20
2017-09-17T11:22:12.216Z,19.30
2017-09-17T11:24:39.877Z,19.80
2017-09-17T11:27:07.487Z,23.20
2017-09-17T11:29:35.085Z,23.00
2017-09-17T11:32:02.724Z,22.30
2017-09-17T11:34:30.335Z,22.10
2017-09-17T11:36:57.944Z,22.10
2017-09-17T11:39:25.600Z,20.80
2017-09-17T11:41:53.972Z,24.60
2017-09-17T11:44:21.592Z,24.60
2017-09-17T11:46:49.219Z,21.90
2017-09-17T11:49:17.616Z,22.80
2017-09-17T11:51:45.248Z,22.70
2017-09-17T11:54:12.891Z,23.80
2017-09-17T11:56:41.271Z,23.40
2017-09-17T11:59:08.908Z,23.40
2017-09-17T12:01:36.540Z,21.80
2017-09-17T12:04:04.173Z,22.20
2017-09-17T12:06:31.777Z,24.20
2017-09-17T12:08:59.412Z,21.30
2017-09-17T12:11:27.017Z,19.70
2017-09-17T12:13:54.631Z,20.00
2017-09-17T12:16:22.258Z,20.80
2017-09-17T12:18:49.868Z,23.40
2017-09-17T12:21:17.467Z,22.60
2017-09-17T12:23:45.100Z,21.60
2017-09-17T12:26:12.705Z,20.70
2017-09-17T12:28:40.312Z,20.20
2017-09-17T12:31:07.952Z,19.10
2017-09-17T12:33:35.561Z,18.50
2017-09-17T12:36:03.155Z,18.80
2017-09-17T12:38:30.823Z,16.80
2017-09-17T12:40:58.423Z,17.10
2017-09-17T12:43:26.039Z,18.30
2017-09-17T12:45:53.677Z,20.30
2017-09-17T12:48:21.283Z,18.70
2017-09-17T12:50:48.889Z,19.90
2017-09-17T12:53:16.543Z,18.60
2017-09-17T12:55:44.156Z,17.60
2017-09-17T12:58:11.758Z,17.00
2017-09-17T13:00:39.403Z,14.70
2017-09-17T13:03:07.031Z,13.50
2017-09-17T13:05:34.637Z,13.30
2017-09-17T13:08:03.094Z,14.10
2017-09-17T13:10:30.713Z,14.10
2017-09-17T13:12:58.323Z,14.30
2017-09-17T13:15:26.728Z,14.70
2017-09-17T13:17:54.323Z,14.70
2017-09-17T13:20:22.691Z,12.40
2017-09-17T13:22:51.102Z,10.80
2017-09-17T13:25:18.695Z,10.80
2017-09-17T13:27:47.062Z,10.50
2017-09-17T13:30:15.464Z,9.60
2017-09-17T13:32:43.057Z,9.60
2017-09-17T13:35:10.666Z,10.90
2017-09-17T13:37:38.300Z,10.40
2017-09-17T13:40:05.893Z,9.30
2017-09-17T13:42:33.499Z,10.10
2017-09-17T13:45:01.128Z,11.30
2017-09-17T13:47:28.731Z,13.20
2017-09-17T13:49:56.340Z,14.40
2017-09-17T13:52:23.971Z,14.60
2017-09-17T13:54:51.572Z,14.00
2017-09-17T13:57:19.179Z,15.90
2017-09-17T14:00:03.488Z,15.40
2017-09-17T14:05:48.976Z,14.60
2017-09-17T14:11:18.652Z,11.10
2017-09-17T14:13:46.259Z,10.30
2017-09-17T14:16:13.850Z,10.30
2017-09-17T14:18:41.505Z,12.00
2017-09-17T14:21:09.111Z,11.60
2017-09-17T14:23:37.495Z,13.50
2017-09-17T14:26:05.130Z,13.50
2017-09-17T14:28:32.736Z,13.90
2017-09-17T14:31:00.346Z,14.20
2017-09-17T14:33:27.995Z,15.50
2017-09-17T14:35:55.591Z,15.90
2017-09-17T14:38:23.208Z,15.80
2017-09-17T14:40:50.844Z,16.20
2017-09-17T14:43:18.449Z,16.40
2017-09-17T14:45:46.063Z,15.90
2017-09-17T14:48:13.700Z,16.70
2017-09-17T14:50:41.306Z,17.60
2017-09-17T14:53:08.916Z,16.40
2017-09-17T14:55:37.337Z,16.40
2017-09-17T14:58:04.953Z,16.80
2017-09-17T15:00:32.555Z,18.20
2017-09-17T15:03:00.191Z,17.20
2017-09-17T15:05:27.794Z,18.40
2017-09-17T15:07:55.399Z,17.70
2017-09-17T15:10:23.043Z,18.00
2017-09-17T15:12:51.432Z,18.30
2017-09-17T15:15:19.052Z,18.30
2017-09-17T15:17:46.692Z,17.00
2017-09-17T15:20:15.124Z,16.40
2017-09-17T15:22:42.744Z,16.40
2017-09-17T15:25:10.382Z,16.80
2017-09-17T15:27:38.027Z,16.40
2017-09-17T15:30:05.653Z,17.40
2017-09-17T15:32:39.458Z,17.80
2017-09-17T15:35:07.599Z,17.80
2017-09-17T15:37:36.030Z,18.40
2017-09-17T15:40:04.716Z,18.40
2017-09-17T15:42:32.335Z,17.80
2017-09-17T15:44:59.993Z,18.90
2017-09-17T15:47:27.669Z,20.00
2017-09-17T15:49:56.063Z,17.60
2017-09-17T15:52:23.716Z,17.50
2017-09-17T15:54:51.347Z,18.40
2017-09-17T15:57:19.491Z,19.70
2017-09-17T15:59:47.911Z,23.50
2017-09-17T16:02:17.354Z,23.50
2017-09-17T16:04:45.003Z,24.30
2017-09-17T16:07:13.399Z,24.90
2017-09-17T16:09:41.033Z,25.80
2017-09-17T16:12:08.669Z,27.20
2017-09-17T16:14:40.173Z,27.60
2017-09-17T16:17:07.824Z,26.60
2017-09-17T16:19:36.217Z,27.60
2017-09-17T16:22:03.867Z,27.60
2017-09-17T16:24:38.074Z,26.80
2017-09-17T16:27:06.268Z,26.90
2017-09-17T16:29:33.896Z,25.50
2017-09-17T16:32:01.536Z,23.90
2017-09-17T16:34:29.273Z,25.00
2017-09-17T16:36:56.912Z,25.50
2017-09-17T16:39:24.561Z,26.90
2017-09-17T16:41:52.262Z,27.60
2017-09-17T16:44:19.889Z,27.10
2017-09-17T16:46:47.532Z,29.10
2017-09-17T16:49:15.188Z,30.50
2017-09-17T16:51:42.812Z,32.50
2017-09-17T16:54:10.468Z,36.10
2017-09-17T16:56:38.158Z,38.00
2017-09-17T16:59:05.843Z,39.30
2017-09-17T17:01:33.477Z,40.20
2017-09-17T17:04:01.223Z,43.60
2017-09-17T17:06:28.884Z,44.10
2017-09-17T17:08:56.508Z,44.40
2017-09-17T17:11:24.163Z,45.10
2017-09-17T17:13:51.789Z,47.90
2017-09-17T17:16:20.231Z,50.70
2017-09-17T17:18:47.892Z,50.70
2017-09-17T17:21:15.526Z,52.10
2017-09-17T17:23:43.503Z,53.10
2017-09-17T17:26:11.924Z,54.20
2017-09-17T17:28:39.580Z,54.10
2017-09-17T17:31:07.211Z,55.20
2017-09-17T17:33:34.916Z,57.80
2017-09-17T17:36:02.603Z,59.00
2017-09-17T17:38:30.559Z,58.40
2017-09-17T17:40:58.232Z,58.60
2017-09-17T17:43:25.865Z,59.70
2017-09-17T17:45:53.496Z,59.10
2017-09-17T17:48:21.157Z,60.20
2017-09-17T17:50:48.790Z,60.10
2017-09-17T17:53:16.412Z,60.90
2017-09-17T17:55:44.068Z,63.40
2017-09-17T17:58:11.699Z,64.60
2017-09-17T18:00:39.328Z,64.20
2017-09-17T18:03:07.749Z,64.70
2017-09-17T18:05:35.436Z,64.70
2017-09-17T18:08:03.835Z,66.00
2017-09-17T18:10:31.503Z,66.00
2017-09-17T18:12:59.136Z,66.40
2017-09-17T18:15:26.772Z,67.00
2017-09-17T18:17:54.424Z,67.90
2017-09-17T18:20:22.054Z,69.50
2017-09-17T18:22:49.684Z,71.20
2017-09-17T18:25:18.104Z,70.80
2017-09-17T18:27:45.739Z,71.50
2017-09-17T18:30:13.369Z,71.50
2017-09-17T18:32:41.036Z,71.60
2017-09-17T18:35:08.665Z,72.10
2017-09-17T18:37:36.294Z,73.90
2017-09-17T18:40:03.948Z,74.60
2017-09-17T18:42:31.581Z,74.30
2017-09-17T18:44:59.970Z,74.20
2017-09-17T18:47:27.631Z,74.20
2017-09-17T18:49:55.243Z,75.10
2017-09-17T18:52:22.870Z,77.10
2017-09-17T18:54:51.299Z,78.50
2017-09-17T18:57:18.930Z,78.30
2017-09-17T18:59:46.557Z,78.60
2017-09-17T19:02:14.213Z,77.90
2017-09-17T19:04:41.848Z,78.20
2017-09-17T19:07:09.481Z,79.20
2017-09-17T19:09:37.146Z,79.20
2017-09-17T19:12:04.783Z,78.90
2017-09-17T19:14:32.441Z,80.20
2017-09-17T19:17:00.104Z,80.20
2017-09-17T19:19:27.736Z,80.10
2017-09-17T19:21:55.357Z,80.30
2017-09-17T19:24:23.794Z,81.30
2017-09-17T19:26:51.417Z,81.20
2017-09-17T19:29:19.052Z,80.30
2017-09-17T19:31:46.718Z,80.40
2017-09-17T19:34:14.357Z,80.40
2017-09-17T19:36:41.983Z,80.50
2017-09-17T19:39:10.659Z,81.60
2017-09-17T19:41:38.400Z,81.60
2017-09-17T19:44:06.227Z,81.40
2017-09-17T19:46:33.919Z,80.90
2017-09-17T19:49:01.588Z,82.60
2017-09-17T19:51:29.220Z,81.50
2017-09-17T19:53:56.946Z,82.00
2017-09-17T19:56:24.575Z,78.80
2017-09-17T19:58:52.195Z,78.70
2017-09-17T20:01:19.866Z,75.80
2017-09-17T20:03:47.525Z,78.20
2017-09-17T20:06:15.147Z,78.40
2017-09-17T20:08:43.581Z,78.50
2017-09-17T20:11:11.235Z,78.50
2017-09-17T20:13:38.867Z,78.00
2017-09-17T20:16:06.530Z,78.10
2017-09-17T20:18:34.161Z,77.40
2017-09-17T20:21:01.808Z,76.50
2017-09-17T20:23:30.287Z,75.90
2017-09-17T20:25:57.916Z,75.80
2017-09-17T20:28:25.571Z,75.40
2017-09-17T20:30:53.227Z,75.80
2017-09-17T20:33:21.758Z,77.10
2017-09-17T20:35:49.601Z,76.90
2017-09-17T20:38:17.256Z,77.00
2017-09-17T20:40:44.874Z,77.20
2017-09-17T20:43:12.497Z,78.20
2017-09-17T20:45:40.931Z,78.70
2017-09-17T20:48:08.553Z,78.70
2017-09-17T20:50:36.178Z,79.80
2017-09-17T20:53:03.848Z,80.30
2017-09-17T20:55:31.479Z,80.70
2017-09-17T20:57:59.107Z,80.10
2017-09-17T21:00:26.810Z,80.20
2017-09-17T21:02:54.452Z,81.20
2017-09-17T21:05:22.086Z,81.60
2017-09-17T21:07:49.748Z,81.30
2017-09-17T21:10:17.391Z,81.30
2017-09-17T21:12:45.011Z,81.90
2017-09-17T21:15:12.664Z,82.70
2017-09-17T21:17:40.284Z,82.50
2017-09-17T21:20:07.910Z,82.50
2017-09-17T21:22:36.329Z,83.30
2017-09-17T21:25:03.956Z,83.20
2017-09-17T21:27:31.576Z,84.10
2017-09-17T21:29:59.997Z,84.50
2017-09-17T21:32:27.624Z,84.50
2017-09-17T21:34:55.240Z,84.50
2017-09-17T21:37:22.896Z,83.80
2017-09-17T21:39:50.523Z,83.50
2017-09-17T21:42:18.916Z,85.10
2017-09-17T21:44:46.571Z,85.10
2017-09-17T21:47:14.190Z,85.50
2017-09-17T21:49:41.826Z,86.00
2017-09-17T21:52:10.252Z,86.40
2017-09-17T21:54:37.919Z,86.40
2017-09-17T21:57:05.533Z,85.50
2017-09-17T21:59:33.178Z,85.90
2017-09-17T22:02:00.796Z,86.10
2017-09-17T22:04:28.456Z,86.10
2017-09-17T22:06:56.109Z,86.20
2017-09-17T22:09:23.728Z,86.60
2017-09-17T22:11:51.348Z,87.00
2017-09-17T22:14:19.777Z,86.90
2017-09-17T22:16:47.390Z,86.90
2017-09-17T22:19:15.007Z,86.90
2017-09-17T22:21:43.432Z,87.60
2017-09-17T22:24:11.100Z,87.60
2017-09-17T22:26:38.716Z,87.00
2017-09-17T22:29:06.391Z,86.80
2017-09-17T22:31:34.018Z,86.40
2017-09-17T22:34:01.644Z,86.40
2017-09-17T22:36:29.308Z,85.90
2017-09-17T22:38:56.928Z,85.50
2017-09-17T22:41:24.553Z,84.60
2017-09-17T22:43:52.984Z,85.60
2017-09-17T22:46:20.614Z,85.50
2017-09-17T22:48:48.226Z,86.00
2017-09-17T22:51:15.878Z,86.40
2017-09-17T22:53:43.499Z,86.80
2017-09-17T22:56:11.887Z,86.90
2017-09-17T22:58:39.536Z,86.90
2017-09-17T23:01:07.152Z,87.00
2017-09-17T23:03:35.551Z,87.10
2017-09-17T23:06:03.208Z,87.10
2017-09-17T23:08:30.839Z,87.50
2017-09-17T23:10:58.456Z,87.40
2017-09-17T23:13:26.875Z,87.40
2017-09-17T23:15:54.508Z,87.40
2017-09-17T23:18:22.118Z,86.90
2017-09-17T23:20:49.776Z,86.10
2017-09-17T23:23:17.450Z,86.80
2017-09-17T23:25:45.160Z,86.70
2017-09-17T23:28:12.810Z,87.00
2017-09-17T23:30:41.193Z,87.30
2017-09-17T23:33:08.809Z,87.30
2017-09-17T23:35:36.463Z,87.40
2017-09-17T23:38:04.907Z,87.20
2017-09-17T23:40:32.532Z,87.10
2017-09-17T23:43:00.191Z,86.40
2017-09-17T23:45:27.809Z,86.40
2017-09-17T23:47:55.437Z,87.00
2017-09-17T23:50:23.105Z,86.90
2017-09-17T23:52:50.737Z,87.50
2017-09-17T23:55:18.372Z,87.20
2017-09-17T23:57:46.335Z,87.20
